createdAt,value
2023-05-14T00:00:55.299Z,64.40
2023-05-14T00:01:56.342Z,67.48
2023-05-14T00:02:56.652Z,66.79
2023-05-14T00:03:56.532Z,62.14
2023-05-14T00:04:56.423Z,63.59
2023-05-14T00:05:56.426Z,61.15
2023-05-14T00:06:55.480Z,52.83
2023-05-14T00:07:56.526Z,45.70
2023-05-14T00:08:55.570Z,46.68
2023-05-14T00:09:55.584Z,49.67
2023-05-14T00:10:56.600Z,49.34
2023-05-14T00:11:55.623Z,44.41
2023-05-14T00:12:55.617Z,48.19
2023-05-14T00:13:55.644Z,53.46
2023-05-14T00:14:55.739Z,60.56
2023-05-14T00:15:56.736Z,69.31
2023-05-14T00:16:56.732Z,79.94
2023-05-14T00:17:56.822Z,78.53
2023-05-14T00:18:56.804Z,86.87
2023-05-14T00:19:56.838Z,91.40
2023-05-14T00:20:56.901Z,94.69
2023-05-14T00:21:55.887Z,92.18
2023-05-14T00:22:55.936Z,90.27
2023-05-14T00:23:56.993Z,86.88
2023-05-14T00:24:56.006Z,87.85
2023-05-14T00:25:57.042Z,97.18
2023-05-14T00:26:57.110Z,105.16
2023-05-14T00:27:57.126Z,115.29
2023-05-14T00:28:57.142Z,122.33
2023-05-14T00:29:57.208Z,133.74
2023-05-14T00:30:57.321Z,147.40
2023-05-14T00:31:56.383Z,150.61
2023-05-14T00:32:56.352Z,150.55
2023-05-14T00:33:57.362Z,155.35
2023-05-14T00:34:57.418Z,153.51
2023-05-14T00:35:56.450Z,156.46
2023-05-14T00:36:57.473Z,152.61
2023-05-14T00:37:57.591Z,154.92
2023-05-14T00:38:57.552Z,152.09
2023-05-14T00:39:57.595Z,144.01
2023-05-14T00:40:57.638Z,141.13
2023-05-14T00:41:57.705Z,140.77
2023-05-14T00:42:56.722Z,146.28
2023-05-14T00:43:57.761Z,135.73
2023-05-14T00:44:56.742Z,139.32
2023-05-14T00:45:57.768Z,135.80
2023-05-14T00:46:56.849Z,128.98
2023-05-14T00:47:57.878Z,126.96
2023-05-14T00:48:57.882Z,126.58
2023-05-14T00:49:57.925Z,128.41
2023-05-14T00:50:56.941Z,134.47
2023-05-14T00:51:57.968Z,161.24
2023-05-14T00:52:57.990Z,178.95
2023-05-14T00:53:58.032Z,188.96
2023-05-14T00:54:57.118Z,182.73
2023-05-14T00:55:57.079Z,181.45
2023-05-14T00:56:58.111Z,178.53
2023-05-14T00:57:58.125Z,170.82
2023-05-14T00:58:57.166Z,171.34
2023-05-14T00:59:57.201Z,167.74
2023-05-14T01:00:57.260Z,164.07
2023-05-14T01:01:58.228Z,151.91
2023-05-14T01:02:57.305Z,138.66
2023-05-14T01:03:57.516Z,123.55
2023-05-14T01:04:58.298Z,123.05
2023-05-14T01:05:57.290Z,127.93
2023-05-14T01:06:58.381Z,148.59
2023-05-14T01:07:57.358Z,161.73
2023-05-14T01:08:57.379Z,171.03
2023-05-14T01:09:57.432Z,179.48
2023-05-14T01:10:57.455Z,198.61
2023-05-14T01:11:57.493Z,204.01
2023-05-14T01:12:58.567Z,207.81
2023-05-14T01:13:58.585Z,214.08
2023-05-14T01:14:57.674Z,200.26
2023-05-14T01:15:57.758Z,197.93
2023-05-14T01:16:58.822Z,186.86
2023-05-14T01:17:57.868Z,179.21
2023-05-14T01:18:57.945Z,188.10
2023-05-14T01:19:58.914Z,171.87
2023-05-14T01:20:57.975Z,159.08
2023-05-14T01:21:59.049Z,143.64
2023-05-14T01:22:59.075Z,140.21
2023-05-14T01:23:59.120Z,131.82
2023-05-14T01:24:59.206Z,114.66
2023-05-14T01:25:58.221Z,95.48
2023-05-14T01:26:59.259Z,93.46
2023-05-14T01:27:59.327Z,85.77
2023-05-14T01:28:58.364Z,80.99
2023-05-14T01:29:58.442Z,85.29
2023-05-14T01:30:58.493Z,95.66
2023-05-14T01:31:59.558Z,111.51
2023-05-14T01:32:58.627Z,123.42
2023-05-14T01:33:59.597Z,119.35
2023-05-14T01:34:59.659Z,112.96
2023-05-14T01:35:58.837Z,109.32
2023-05-14T01:36:58.764Z,108.62
2023-05-14T01:37:59.816Z,102.36
2023-05-14T01:38:59.809Z,85.65
2023-05-14T01:39:59.818Z,70.58
2023-05-14T01:40:58.824Z,58.80
2023-05-14T01:41:59.859Z,50.91
2023-05-14T01:42:59.882Z,46.00
2023-05-14T01:43:58.825Z,43.59
2023-05-14T01:44:59.857Z,41.17
2023-05-14T01:45:59.911Z,38.32
2023-05-14T01:46:58.872Z,35.47
2023-05-14T01:47:59.930Z,37.49
2023-05-14T01:48:58.878Z,36.19
2023-05-14T01:49:59.932Z,35.64
2023-05-14T01:50:59.931Z,36.11
2023-05-14T01:51:58.918Z,36.69
2023-05-14T01:53:00.000Z,34.53
2023-05-14T01:53:59.926Z,33.66
2023-05-14T01:54:59.928Z,34.44
2023-05-14T01:55:59.936Z,34.82
2023-05-14T01:56:59.946Z,35.20
2023-05-14T01:57:59.983Z,34.83
2023-05-14T01:58:58.941Z,33.37
2023-05-14T01:59:58.957Z,34.08
2023-05-14T02:00:59.028Z,35.71
2023-05-14T02:02:00.052Z,35.99
2023-05-14T02:03:00.131Z,35.59
2023-05-14T02:04:00.181Z,36.15
2023-05-14T02:04:59.042Z,36.03
2023-05-14T02:06:00.111Z,36.04
2023-05-14T02:07:00.126Z,35.33
2023-05-14T02:07:59.125Z,36.13
2023-05-14T02:09:00.157Z,36.77
2023-05-14T02:10:00.188Z,34.66
2023-05-14T02:11:00.162Z,34.90
2023-05-14T02:12:00.226Z,34.00
2023-05-14T02:12:59.217Z,34.93
2023-05-14T02:13:59.228Z,34.17
2023-05-14T02:15:00.218Z,35.24
2023-05-14T02:16:00.319Z,34.58
2023-05-14T02:17:00.237Z,33.82
2023-05-14T02:17:59.228Z,32.97
2023-05-14T02:18:59.285Z,31.99
2023-05-14T02:19:59.230Z,31.04
2023-05-14T02:21:00.254Z,31.09
2023-05-14T02:22:00.270Z,29.79
2023-05-14T02:23:00.323Z,28.34
2023-05-14T02:24:00.296Z,29.13
2023-05-14T02:24:59.312Z,27.46
2023-05-14T02:26:00.314Z,26.64
2023-05-14T02:27:00.343Z,28.16
2023-05-14T02:28:00.370Z,27.96
2023-05-14T02:29:00.351Z,27.44
2023-05-14T02:30:00.364Z,27.64
2023-05-14T02:30:59.407Z,27.40
2023-05-14T02:31:59.373Z,26.50
2023-05-14T02:32:59.455Z,25.38
2023-05-14T02:34:00.440Z,23.86
2023-05-14T02:35:00.416Z,23.17
2023-05-14T02:35:59.426Z,23.20
2023-05-14T02:36:59.439Z,23.03
2023-05-14T02:37:59.438Z,22.20
2023-05-14T02:38:59.441Z,22.36
2023-05-14T02:39:59.471Z,21.68
2023-05-14T02:41:00.462Z,21.77
2023-05-14T02:41:59.447Z,22.48
2023-05-14T02:43:00.475Z,22.88
2023-05-14T02:43:59.459Z,21.46
2023-05-14T02:44:59.469Z,21.07
2023-05-14T02:46:00.538Z,21.72
2023-05-14T02:46:59.572Z,21.63
2023-05-14T02:47:59.470Z,21.61
2023-05-14T02:49:00.505Z,21.51
2023-05-14T02:50:00.557Z,22.44
2023-05-14T02:50:59.566Z,21.42
2023-05-14T02:52:00.575Z,21.61
2023-05-14T02:53:00.631Z,22.18
2023-05-14T02:54:00.639Z,21.38
2023-05-14T02:55:00.660Z,21.70
2023-05-14T02:56:00.687Z,20.15
2023-05-14T02:56:59.665Z,20.73
2023-05-14T02:58:00.739Z,22.66
2023-05-14T02:59:00.706Z,23.12
2023-05-14T03:00:00.703Z,23.73
2023-05-14T03:00:59.735Z,23.03
2023-05-14T03:02:00.727Z,20.26
2023-05-14T03:03:00.753Z,21.04
2023-05-14T03:03:59.756Z,20.78
2023-05-14T03:04:59.740Z,18.89
2023-05-14T03:05:59.753Z,18.76
2023-05-14T03:07:00.772Z,19.17
2023-05-14T03:07:59.749Z,19.63
2023-05-14T03:08:59.761Z,19.12
2023-05-14T03:09:59.815Z,20.82
2023-05-14T03:10:59.791Z,23.11
2023-05-14T03:12:00.796Z,25.98
2023-05-14T03:12:59.798Z,25.52
2023-05-14T03:13:59.811Z,26.05
2023-05-14T03:14:59.855Z,25.76
2023-05-14T03:15:59.889Z,27.86
2023-05-14T03:17:00.944Z,30.27
2023-05-14T03:17:59.954Z,35.59
2023-05-14T03:19:00.917Z,43.70
2023-05-14T03:19:59.939Z,53.24
2023-05-14T03:21:00.920Z,53.26
2023-05-14T03:22:00.958Z,50.49
2023-05-14T03:22:59.949Z,45.20
2023-05-14T03:24:00.974Z,42.86
2023-05-14T03:24:59.956Z,47.29
2023-05-14T03:26:00.970Z,50.51
2023-05-14T03:26:59.962Z,53.64
2023-05-14T03:28:00.972Z,49.26
2023-05-14T03:29:00.005Z,40.56
2023-05-14T03:30:00.982Z,41.06
2023-05-14T03:31:00.016Z,41.05
2023-05-14T03:31:59.997Z,39.14
2023-05-14T03:33:00.121Z,34.62
2023-05-14T03:34:00.012Z,33.41
2023-05-14T03:35:01.074Z,31.86
2023-05-14T03:36:00.041Z,31.93
2023-05-14T03:37:01.050Z,29.69
2023-05-14T03:38:00.073Z,29.08
2023-05-14T03:39:00.065Z,27.92
2023-05-14T03:40:00.070Z,24.40
2023-05-14T03:41:01.149Z,24.47
2023-05-14T03:42:01.092Z,25.41
2023-05-14T03:43:01.109Z,24.22
2023-05-14T03:44:01.100Z,23.73
2023-05-14T03:45:01.125Z,23.47
2023-05-14T03:46:01.133Z,24.52
2023-05-14T03:47:01.206Z,24.59
2023-05-14T03:48:00.279Z,25.54
2023-05-14T03:49:00.224Z,25.96
2023-05-14T03:50:00.236Z,26.01
2023-05-14T03:51:01.261Z,25.31
2023-05-14T03:52:00.249Z,26.12
2023-05-14T03:53:01.316Z,27.33
2023-05-14T03:54:01.287Z,27.15
2023-05-14T03:55:01.302Z,27.75
2023-05-14T03:56:00.281Z,28.54
2023-05-14T03:57:01.311Z,29.40
2023-05-14T03:58:01.331Z,30.14
2023-05-14T03:59:00.366Z,31.32
2023-05-14T04:00:01.396Z,35.14
2023-05-14T04:01:00.412Z,40.37
2023-05-14T04:02:01.413Z,45.51
2023-05-14T04:03:01.464Z,49.87
2023-05-14T04:04:00.645Z,53.62
2023-05-14T04:05:01.501Z,55.52
2023-05-14T04:06:01.474Z,50.76
2023-05-14T04:07:01.478Z,51.05
2023-05-14T04:08:00.453Z,50.27
2023-05-14T04:09:01.500Z,48.48
2023-05-14T04:10:03.359Z,47.66
2023-05-14T04:11:00.527Z,45.11
2023-05-14T04:12:00.562Z,41.28
2023-05-14T04:13:00.467Z,37.97
2023-05-14T04:14:00.485Z,35.75
2023-05-14T04:15:00.445Z,35.95
2023-05-14T04:16:01.512Z,36.83
2023-05-14T04:17:01.483Z,37.48
2023-05-14T04:18:00.460Z,31.82
2023-05-14T04:19:01.478Z,31.10
2023-05-14T04:20:01.428Z,29.23
2023-05-14T04:21:01.414Z,28.47
2023-05-14T04:22:01.413Z,29.20
2023-05-14T04:23:00.432Z,28.22
2023-05-14T04:24:01.399Z,26.91
2023-05-14T04:25:01.394Z,27.10
2023-05-14T04:26:01.388Z,28.05
2023-05-14T04:27:01.408Z,26.90
2023-05-14T04:28:00.394Z,27.10
2023-05-14T04:29:01.386Z,27.32
2023-05-14T04:30:01.336Z,26.19
2023-05-14T04:31:00.347Z,27.58
2023-05-14T04:32:01.461Z,28.87
2023-05-14T04:33:01.418Z,28.13
2023-05-14T04:34:01.315Z,29.24
2023-05-14T04:35:01.357Z,29.18
2023-05-14T04:36:00.310Z,28.65
2023-05-14T04:37:00.288Z,27.97
2023-05-14T04:38:00.280Z,27.91
2023-05-14T04:39:01.301Z,30.56
2023-05-14T04:40:01.269Z,29.26
2023-05-14T04:41:01.302Z,30.31
2023-05-14T04:42:01.269Z,29.89
2023-05-14T04:43:01.274Z,31.93
2023-05-14T04:44:01.243Z,34.16
2023-05-14T04:45:01.242Z,35.23
2023-05-14T04:46:01.247Z,38.02
2023-05-14T04:47:01.267Z,41.18
2023-05-14T04:48:00.383Z,48.65
2023-05-14T04:49:01.189Z,67.80
2023-05-14T04:50:00.376Z,82.46
2023-05-14T04:51:01.184Z,83.32
2023-05-14T04:52:01.194Z,84.12
2023-05-14T04:53:01.211Z,89.34
2023-05-14T04:54:00.248Z,91.43
2023-05-14T04:55:01.188Z,95.71
2023-05-14T04:56:01.161Z,129.66
2023-05-14T04:57:01.154Z,158.71
2023-05-14T04:58:00.148Z,166.94
2023-05-14T04:59:01.177Z,174.63
2023-05-14T05:00:01.186Z,183.73
2023-05-14T05:01:01.180Z,190.07
2023-05-14T05:02:01.249Z,192.44
2023-05-14T05:03:01.346Z,188.79
2023-05-14T05:04:01.381Z,203.11
2023-05-14T05:05:01.360Z,205.87
2023-05-14T05:06:01.361Z,205.54
2023-05-14T05:07:00.487Z,235.92
2023-05-14T05:08:01.404Z,246.92
2023-05-14T05:09:01.967Z,250.14
2023-05-14T05:10:01.468Z,249.48
2023-05-14T05:11:01.495Z,236.64
2023-05-14T05:12:01.507Z,226.70
2023-05-14T05:13:01.491Z,226.52
2023-05-14T05:14:00.610Z,218.54
2023-05-14T05:15:00.597Z,215.06
2023-05-14T05:16:00.731Z,204.58
2023-05-14T05:17:00.667Z,173.97
2023-05-14T05:18:01.750Z,152.00
2023-05-14T05:19:00.837Z,153.60
2023-05-14T05:20:01.741Z,141.11
2023-05-14T05:21:00.765Z,141.51
2023-05-14T05:22:00.766Z,126.23
2023-05-14T05:23:01.893Z,119.24
2023-05-14T05:24:00.905Z,119.85
2023-05-14T05:25:01.920Z,132.00
2023-05-14T05:26:01.985Z,163.68
2023-05-14T05:27:02.057Z,172.23
2023-05-14T05:28:01.042Z,151.61
2023-05-14T05:29:01.100Z,150.22
2023-05-14T05:30:02.227Z,131.81
2023-05-14T05:31:01.207Z,104.46
2023-05-14T05:32:01.248Z,93.31
2023-05-14T05:33:02.356Z,81.37
2023-05-14T05:34:01.363Z,77.41
2023-05-14T05:35:01.399Z,68.17
2023-05-14T05:36:02.498Z,58.70
2023-05-14T05:37:02.495Z,55.22
2023-05-14T05:38:01.940Z,56.64
2023-05-14T05:39:02.579Z,52.32
2023-05-14T05:40:01.639Z,50.91
2023-05-14T05:41:01.693Z,45.43
2023-05-14T05:42:01.758Z,42.53
2023-05-14T05:43:02.772Z,42.47
2023-05-14T05:44:01.840Z,34.84
2023-05-14T05:45:02.903Z,33.45
2023-05-14T05:46:02.938Z,35.67
2023-05-14T05:47:01.953Z,37.72
2023-05-14T05:48:03.043Z,40.03
2023-05-14T05:49:02.957Z,35.67
2023-05-14T05:50:02.005Z,37.32
2023-05-14T05:51:03.046Z,41.66
2023-05-14T05:52:03.064Z,44.43
2023-05-14T05:53:03.132Z,48.28
2023-05-14T05:54:03.116Z,53.27
2023-05-14T05:55:03.118Z,58.00
2023-05-14T05:56:03.135Z,63.08
2023-05-14T05:57:02.145Z,74.18
2023-05-14T05:58:02.204Z,83.78
2023-05-14T05:59:03.201Z,78.60
2023-05-14T06:00:03.200Z,79.43
2023-05-14T06:01:03.197Z,78.89
2023-05-14T06:02:03.287Z,83.66
2023-05-14T06:03:03.239Z,83.33
2023-05-14T06:04:02.254Z,85.95
2023-05-14T06:05:03.264Z,84.54
2023-05-14T06:06:02.270Z,92.64
2023-05-14T06:07:03.261Z,89.97
2023-05-14T06:08:02.292Z,91.90
2023-05-14T06:09:03.330Z,91.49
2023-05-14T06:10:02.337Z,85.85
2023-05-14T06:11:02.320Z,84.81
2023-05-14T06:12:03.372Z,89.55
2023-05-14T06:13:03.360Z,93.12
2023-05-14T06:14:03.377Z,85.52
2023-05-14T06:15:03.445Z,78.64
2023-05-14T06:16:02.594Z,80.37
2023-05-14T06:17:03.539Z,80.84
2023-05-14T06:18:03.629Z,72.05
2023-05-14T06:19:03.614Z,60.76
2023-05-14T06:20:02.603Z,61.15
2023-05-14T06:21:03.679Z,61.15
2023-05-14T06:22:03.717Z,66.23
2023-05-14T06:23:03.695Z,66.36
2023-05-14T06:24:03.725Z,67.32
2023-05-14T06:25:03.779Z,58.69
2023-05-14T06:26:03.776Z,54.68
2023-05-14T06:27:03.818Z,50.09
2023-05-14T06:28:03.905Z,41.07
2023-05-14T06:29:03.915Z,41.05
2023-05-14T06:30:02.946Z,36.64
2023-05-14T06:31:02.979Z,36.74
2023-05-14T06:32:03.074Z,40.51
2023-05-14T06:33:04.167Z,38.77
2023-05-14T06:34:04.118Z,37.45
2023-05-14T06:35:03.104Z,36.96
2023-05-14T06:36:03.114Z,41.16
2023-05-14T06:37:03.138Z,41.42
2023-05-14T06:38:04.187Z,39.52
2023-05-14T06:39:04.250Z,40.73
2023-05-14T06:40:03.241Z,42.16
2023-05-14T06:41:03.228Z,40.99
2023-05-14T06:42:03.243Z,39.65
2023-05-14T06:43:04.272Z,39.33
2023-05-14T06:44:04.283Z,40.67
2023-05-14T06:45:04.324Z,40.86
2023-05-14T06:46:04.341Z,36.01
2023-05-14T06:47:04.371Z,34.71
2023-05-14T06:48:03.492Z,34.22
2023-05-14T06:49:03.465Z,32.97
2023-05-14T06:50:04.511Z,28.85
2023-05-14T06:51:03.458Z,29.32
2023-05-14T06:52:03.534Z,29.29
2023-05-14T06:53:04.479Z,28.52
2023-05-14T06:54:04.528Z,26.19
2023-05-14T06:55:03.518Z,22.37
2023-05-14T06:56:03.507Z,24.86
2023-05-14T06:57:04.570Z,29.06
2023-05-14T06:58:04.627Z,34.82
2023-05-14T06:59:03.623Z,36.13
2023-05-14T07:00:04.020Z,34.44
2023-05-14T07:01:04.716Z,25.33
2023-05-14T07:02:04.738Z,23.21
2023-05-14T07:03:03.783Z,25.56
2023-05-14T07:04:04.826Z,21.93
2023-05-14T07:05:03.730Z,21.00
2023-05-14T07:06:04.749Z,18.45
2023-05-14T07:07:03.756Z,15.95
2023-05-14T07:08:04.806Z,13.09
2023-05-14T07:09:03.857Z,12.27
2023-05-14T07:10:03.958Z,10.99
2023-05-14T07:11:04.979Z,11.12
2023-05-14T07:12:04.033Z,12.02
2023-05-14T07:13:05.155Z,12.83
2023-05-14T07:14:05.130Z,13.45
2023-05-14T07:15:05.181Z,14.04
2023-05-14T07:16:05.263Z,14.92
2023-05-14T07:17:05.267Z,14.04
2023-05-14T07:18:05.326Z,12.07
2023-05-14T07:19:05.380Z,11.76
2023-05-14T07:20:05.383Z,12.51
2023-05-14T07:21:05.474Z,13.30
2023-05-14T07:22:04.474Z,11.17
2023-05-14T07:23:04.493Z,9.45
2023-05-14T07:24:05.524Z,9.85
2023-05-14T07:25:05.539Z,7.85
2023-05-14T07:26:05.613Z,9.34
2023-05-14T07:27:05.662Z,11.39
2023-05-14T07:28:04.692Z,13.19
2023-05-14T07:29:05.740Z,13.94
2023-05-14T07:30:05.789Z,13.56
2023-05-14T07:31:04.876Z,12.45
2023-05-14T07:32:04.878Z,13.03
2023-05-14T07:33:04.998Z,13.81
2023-05-14T07:34:04.937Z,14.38
2023-05-14T07:35:05.990Z,13.33
2023-05-14T07:36:05.984Z,10.67
2023-05-14T07:37:06.051Z,9.11
2023-05-14T07:38:06.131Z,9.29
2023-05-14T07:39:05.114Z,9.68
2023-05-14T07:40:05.223Z,8.90
2023-05-14T07:41:06.169Z,8.71
2023-05-14T07:42:06.211Z,10.47
2023-05-14T07:43:05.226Z,13.69
2023-05-14T07:44:06.254Z,12.42
2023-05-14T07:45:05.273Z,10.81
2023-05-14T07:46:06.290Z,11.64
2023-05-14T07:47:05.374Z,11.62
2023-05-14T07:48:06.536Z,10.68
2023-05-14T07:49:06.479Z,9.93
2023-05-14T07:50:06.540Z,8.89
2023-05-14T07:51:06.518Z,7.47
2023-05-14T07:52:06.515Z,5.92
2023-05-14T07:53:05.585Z,6.31
2023-05-14T07:54:06.604Z,6.21
2023-05-14T07:55:05.605Z,5.43
2023-05-14T07:56:06.654Z,5.82
2023-05-14T07:57:06.653Z,5.21
2023-05-14T07:58:05.725Z,5.20
2023-05-14T07:59:06.778Z,5.77
2023-05-14T08:00:06.824Z,5.33
2023-05-14T08:01:05.832Z,5.08
2023-05-14T08:02:06.906Z,5.51
2023-05-14T08:03:06.013Z,5.01
2023-05-14T08:04:05.933Z,4.70
2023-05-14T08:05:05.876Z,4.18
2023-05-14T08:06:06.844Z,3.71
2023-05-14T08:07:05.879Z,3.28
2023-05-14T08:08:05.892Z,3.59
2023-05-14T08:09:06.940Z,3.26
2023-05-14T08:10:06.940Z,3.12
2023-05-14T08:11:07.048Z,2.99
2023-05-14T08:12:06.971Z,2.44
2023-05-14T08:13:06.011Z,2.75
2023-05-14T08:14:06.079Z,2.68
2023-05-14T08:15:07.098Z,2.73
2023-05-14T08:16:07.149Z,2.18
2023-05-14T08:17:06.258Z,1.90
2023-05-14T08:18:07.190Z,1.86
2023-05-14T08:19:07.199Z,2.08
2023-05-14T08:20:06.185Z,1.94
2023-05-14T08:21:06.209Z,2.08
2023-05-14T08:22:07.216Z,1.81
2023-05-14T08:23:07.268Z,1.93
2023-05-14T08:24:06.237Z,2.90
2023-05-14T08:25:06.329Z,3.57
2023-05-14T08:26:07.353Z,2.93
2023-05-14T08:27:07.401Z,2.89
2023-05-14T08:28:06.401Z,2.50
2023-05-14T08:29:09.305Z,2.86
2023-05-14T08:30:06.362Z,2.67
2023-05-14T08:31:06.422Z,2.89
2023-05-14T08:32:19.277Z,2.86
2023-05-14T08:33:07.435Z,2.30
2023-05-14T08:34:06.319Z,2.17
2023-05-14T08:35:06.335Z,2.46
2023-05-14T08:36:07.333Z,2.17
2023-05-14T08:37:07.304Z,1.91
2023-05-14T08:38:06.303Z,1.61
2023-05-14T08:39:06.339Z,1.55
2023-05-14T08:40:06.273Z,1.49
2023-05-14T08:41:07.574Z,1.18
2023-05-14T08:42:06.277Z,1.29
2023-05-14T08:43:07.282Z,1.38
2023-05-14T08:44:06.261Z,1.22
2023-05-14T08:45:06.314Z,1.20
2023-05-14T08:46:06.333Z,1.13
2023-05-14T08:47:07.389Z,1.19
2023-05-14T08:48:07.504Z,1.14
2023-05-14T08:49:06.458Z,1.04
2023-05-14T08:50:06.477Z,1.40
2023-05-14T08:51:07.524Z,1.33
2023-05-14T08:52:06.464Z,1.52
2023-05-14T08:53:07.511Z,1.63
2023-05-14T08:54:06.527Z,1.77
2023-05-14T08:55:07.493Z,1.72
2023-05-14T08:56:06.488Z,1.49
2023-05-14T08:57:07.539Z,1.33
2023-05-14T08:58:06.544Z,1.38
2023-05-14T08:59:07.560Z,1.94
2023-05-14T09:00:06.544Z,2.12
2023-05-14T09:01:06.586Z,1.52
2023-05-14T09:02:07.856Z,1.48
2023-05-14T09:03:07.967Z,1.59
2023-05-14T09:04:06.786Z,1.32
2023-05-14T09:05:07.737Z,1.55
2023-05-14T09:06:06.796Z,1.30
2023-05-14T09:07:07.872Z,0.99
2023-05-14T09:08:07.894Z,1.02
2023-05-14T09:09:07.997Z,0.73
2023-05-14T09:10:07.979Z,0.63
2023-05-14T09:11:07.041Z,0.52
2023-05-14T09:12:08.088Z,0.59
2023-05-14T09:13:07.163Z,0.56
2023-05-14T09:14:07.221Z,0.63
2023-05-14T09:15:07.258Z,0.72
2023-05-14T09:16:08.309Z,0.82
2023-05-14T09:17:08.257Z,0.83
2023-05-14T09:18:08.339Z,0.65
2023-05-14T09:19:08.434Z,0.59
2023-05-14T09:20:08.395Z,0.35
2023-05-14T09:21:07.395Z,0.42
2023-05-14T09:22:08.568Z,0.58
2023-05-14T09:23:07.489Z,0.66
2023-05-14T09:24:08.522Z,0.53
2023-05-14T09:25:08.621Z,0.56
2023-05-14T09:26:07.652Z,0.69
2023-05-14T09:27:07.692Z,0.48
2023-05-14T09:28:07.727Z,0.53
2023-05-14T09:29:08.782Z,0.43
2023-05-14T09:30:08.818Z,0.50
2023-05-14T09:31:08.910Z,0.48
2023-05-14T09:32:07.945Z,0.34
2023-05-14T09:33:08.029Z,0.34
2023-05-14T09:34:07.937Z,0.34
2023-05-14T09:35:08.955Z,0.34
2023-05-14T09:36:07.954Z,0.40
2023-05-14T09:37:09.015Z,0.36
2023-05-14T09:38:08.007Z,0.42
2023-05-14T09:39:08.022Z,0.54
2023-05-14T09:40:08.037Z,0.50
2023-05-14T09:41:08.060Z,0.45
2023-05-14T09:42:08.177Z,0.49
2023-05-14T09:43:09.163Z,0.55
2023-05-14T09:44:09.182Z,0.55
2023-05-14T09:45:09.254Z,0.71
2023-05-14T09:46:09.250Z,0.65
2023-05-14T09:47:09.319Z,0.49
2023-05-14T09:48:09.425Z,0.47
2023-05-14T09:49:08.341Z,0.54
2023-05-14T09:50:08.417Z,0.60
2023-05-14T09:51:08.401Z,0.71
2023-05-14T09:52:09.502Z,0.60
2023-05-14T09:53:09.505Z,0.60
2023-05-14T09:54:09.538Z,0.50
2023-05-14T09:55:09.589Z,0.63
2023-05-14T09:56:08.626Z,0.48
2023-05-14T09:57:08.609Z,0.50
2023-05-14T09:58:08.623Z,0.52
2023-05-14T09:59:09.673Z,0.53
2023-05-14T10:00:09.701Z,0.59
2023-05-14T10:01:08.845Z,0.49
2023-05-14T10:02:08.775Z,0.51
2023-05-14T10:03:08.819Z,0.57
2023-05-14T10:04:09.864Z,0.62
2023-05-14T10:05:08.868Z,0.60
2023-05-14T10:06:09.901Z,0.70
2023-05-14T10:07:08.879Z,0.59
2023-05-14T10:08:09.949Z,0.48
2023-05-14T10:09:08.944Z,0.50
2023-05-14T10:10:09.999Z,0.49
2023-05-14T10:11:10.031Z,0.46
2023-05-14T10:12:10.046Z,0.54
2023-05-14T10:13:10.084Z,0.63
2023-05-14T10:14:10.132Z,0.67
2023-05-14T10:15:09.159Z,0.74
2023-05-14T10:16:10.211Z,0.62
2023-05-14T10:17:10.434Z,0.71
2023-05-14T10:18:09.412Z,0.77
2023-05-14T10:19:10.425Z,0.84
2023-05-14T10:20:09.408Z,0.80
2023-05-14T10:21:10.417Z,0.83
2023-05-14T10:22:09.429Z,0.67
2023-05-14T10:23:09.450Z,0.80
2023-05-14T10:24:09.549Z,0.82
2023-05-14T10:25:10.530Z,1.26
2023-05-14T10:26:09.527Z,1.41
2023-05-14T10:27:10.559Z,1.29
2023-05-14T10:28:09.613Z,1.10
2023-05-14T10:29:09.639Z,1.06
2023-05-14T10:30:09.686Z,1.02
2023-05-14T10:31:10.692Z,0.94
2023-05-14T10:32:10.686Z,0.73
2023-05-14T10:33:10.827Z,0.68
2023-05-14T10:34:10.830Z,0.84
2023-05-14T10:35:10.859Z,1.03
2023-05-14T10:36:09.937Z,1.15
2023-05-14T10:37:09.936Z,1.20
2023-05-14T10:38:09.956Z,1.10
2023-05-14T10:39:10.977Z,1.35
2023-05-14T10:40:11.039Z,1.56
2023-05-14T10:41:11.102Z,1.49
2023-05-14T10:42:10.097Z,1.93
2023-05-14T10:43:10.130Z,2.06
2023-05-14T10:44:10.198Z,1.72
2023-05-14T10:45:11.189Z,1.50
2023-05-14T10:46:10.242Z,1.68
2023-05-14T10:47:10.295Z,2.07
2023-05-14T10:48:11.262Z,3.36
2023-05-14T10:49:10.318Z,3.68
2023-05-14T10:50:11.327Z,3.13
2023-05-14T10:51:10.399Z,4.98
2023-05-14T10:52:10.388Z,5.64
2023-05-14T10:53:11.477Z,4.26
2023-05-14T10:54:10.466Z,3.23
2023-05-14T10:55:10.528Z,3.76
2023-05-14T10:56:11.568Z,4.98
2023-05-14T10:57:11.581Z,5.86
2023-05-14T10:58:11.618Z,6.36
2023-05-14T10:59:10.695Z,7.13
2023-05-14T11:00:10.691Z,4.08
2023-05-14T11:01:11.692Z,2.74
2023-05-14T11:02:11.761Z,1.97
2023-05-14T11:03:11.740Z,1.85
2023-05-14T11:04:11.799Z,1.55
2023-05-14T11:05:10.816Z,0.96
2023-05-14T11:06:11.797Z,1.66
2023-05-14T11:07:11.830Z,1.54
2023-05-14T11:08:11.887Z,1.69
2023-05-14T11:09:11.955Z,2.25
2023-05-14T11:10:11.985Z,2.20
2023-05-14T11:11:12.105Z,1.80
2023-05-14T11:12:11.076Z,1.67
2023-05-14T11:13:12.113Z,2.48
2023-05-14T11:14:12.164Z,2.90
2023-05-14T11:15:12.135Z,2.27
2023-05-14T11:16:22.740Z,1.77
2023-05-14T11:17:12.390Z,1.78
2023-05-14T11:18:12.269Z,1.83
2023-05-14T11:19:11.389Z,1.96
2023-05-14T11:20:11.158Z,2.01
2023-05-14T11:21:12.170Z,2.05
2023-05-14T11:22:12.186Z,1.93
2023-05-14T11:23:11.128Z,2.34
2023-05-14T11:24:12.106Z,1.71
2023-05-14T11:25:12.099Z,1.65
2023-05-14T11:26:12.158Z,1.59
2023-05-14T11:27:12.096Z,1.46
2023-05-14T11:28:12.124Z,1.65
2023-05-14T11:29:12.086Z,1.49
2023-05-14T11:30:12.065Z,1.18
2023-05-14T11:31:12.126Z,1.20
2023-05-14T11:32:11.129Z,1.00
2023-05-14T11:33:12.153Z,0.87
2023-05-14T11:34:11.047Z,1.01
2023-05-14T11:35:12.049Z,0.97
2023-05-14T11:36:12.043Z,1.39
2023-05-14T11:37:11.135Z,1.68
2023-05-14T11:38:11.064Z,1.91
2023-05-14T11:39:12.024Z,2.01
2023-05-14T11:40:12.005Z,2.45
2023-05-14T11:41:11.050Z,2.20
2023-05-14T11:42:11.999Z,2.45
2023-05-14T11:43:10.987Z,2.23
2023-05-14T11:44:12.039Z,1.87
2023-05-14T11:45:11.995Z,1.81
2023-05-14T11:46:12.000Z,2.76
2023-05-14T11:47:11.025Z,2.96
2023-05-14T11:48:12.012Z,2.54
2023-05-14T11:49:10.969Z,2.45
2023-05-14T11:50:11.028Z,1.49
2023-05-14T11:51:12.065Z,1.27
2023-05-14T11:52:11.101Z,1.45
2023-05-14T11:53:12.155Z,0.97
2023-05-14T11:54:12.177Z,0.94
2023-05-14T11:55:12.191Z,1.23
2023-05-14T11:56:11.204Z,1.11
2023-05-14T11:57:12.248Z,1.03
2023-05-14T11:58:12.221Z,1.46
2023-05-14T11:59:11.307Z,1.51
2023-05-14T12:00:12.269Z,1.07
2023-05-14T12:01:12.311Z,1.19
2023-05-14T12:02:12.377Z,1.10
2023-05-14T12:03:11.526Z,1.44
2023-05-14T12:04:11.571Z,1.71
2023-05-14T12:05:11.449Z,1.80
2023-05-14T12:06:12.487Z,2.50
2023-05-14T12:07:12.571Z,3.50
2023-05-14T12:08:11.547Z,3.87
2023-05-14T12:09:12.640Z,3.78
2023-05-14T12:10:11.624Z,3.94
2023-05-14T12:11:12.670Z,3.42
2023-05-14T12:12:11.698Z,2.74
2023-05-14T12:13:11.716Z,3.01
2023-05-14T12:14:11.744Z,3.15
2023-05-14T12:15:12.863Z,2.47
2023-05-14T12:16:11.845Z,1.99
2023-05-14T12:17:12.951Z,2.00
2023-05-14T12:18:23.360Z,2.40
2023-05-14T12:19:12.885Z,2.43
2023-05-14T12:20:12.848Z,2.51
2023-05-14T12:21:12.860Z,2.55
2023-05-14T12:22:12.806Z,2.30
2023-05-14T12:23:11.808Z,2.02
2023-05-14T12:24:12.804Z,1.93
2023-05-14T12:25:11.805Z,1.59
2023-05-14T12:26:12.796Z,1.29
2023-05-14T12:27:11.818Z,0.91
2023-05-14T12:28:11.797Z,0.83
2023-05-14T12:29:12.764Z,0.91
2023-05-14T12:30:27.540Z,1.06
2023-05-14T12:31:12.793Z,1.06
2023-05-14T12:32:12.748Z,1.08
2023-05-14T12:33:12.899Z,1.17
2023-05-14T12:34:12.741Z,1.28
2023-05-14T12:35:12.745Z,1.58
2023-05-14T12:36:21.664Z,1.16
2023-05-14T12:37:12.711Z,1.16
2023-05-14T12:38:12.706Z,1.17
2023-05-14T12:39:12.763Z,1.09
2023-05-14T12:40:11.726Z,1.27
2023-05-14T12:41:11.717Z,1.45
2023-05-14T12:42:12.707Z,1.73
2023-05-14T12:43:11.706Z,2.19
2023-05-14T12:44:12.682Z,2.27
2023-05-14T12:45:11.717Z,2.38
2023-05-14T12:46:12.663Z,3.02
2023-05-14T12:47:12.691Z,3.36
2023-05-14T12:48:12.707Z,3.47
2023-05-14T12:49:12.643Z,4.05
2023-05-14T12:50:11.662Z,4.42
2023-05-14T12:51:12.687Z,4.76
2023-05-14T12:53:11.606Z,3.92
2023-05-14T12:54:11.598Z,4.26
2023-05-14T12:55:12.618Z,4.56
2023-05-14T12:56:12.389Z,4.68
2023-05-14T12:57:12.609Z,3.65
2023-05-14T12:58:11.620Z,3.03
2023-05-14T12:59:11.586Z,2.86
2023-05-14T13:00:14.131Z,3.31
2023-05-14T13:01:11.583Z,3.34